Mary Alice — WCX9570 — position and weather

sailwx.info

Track history (hours):
 
Tides and Currents Weather Stations Pressure Air Temp Water Temp Dewpoint Dewpoint Depression Visibility Wind Speed Wind Dir Waves Ship Positions

Mary Alice

Owner: Donjon Marine Co., Inc., HILLSIDE, NJ. More information available from US FCC via Universal Licensing System and Coast Guard Vessel Documentation Center.

Last reported at 2015-Mar-26 14:05 UTC. Time now 2015-Mar-29 12:32 UTC.
Position N 40°56' W 073°55'.

Length 21 m; draft 4.8 m.

Type: Towing. MMSI: 366744020.

Date/timePositionNaut miles runAvg speedWind from/ knotsBaromVisibWave heightAir tempDewpointWater temp
2015-Mar-26 14:05N 40°56' W 073°55'0 0.0
2015-Mar-26 13:30N 40°56' W 073°55'8 1.5
2015-Mar-26 08:29N 40°48' W 073°59'7 7.2
2015-Mar-26 07:33N 40°42' W 074°01'2 2.5
2015-Mar-26 06:33N 40°40' W 074°01'0 0.0
2015-Mar-26 05:33N 40°40' W 074°01'0 0.0
2015-Mar-26 04:33N 40°40' W 074°01'0 0.0
2015-Mar-26 03:33N 40°40' W 074°01'0 0.0
2015-Mar-26 02:33N 40°40' W 074°01'0 0.0
2015-Mar-26 01:33N 40°40' W 074°01'0 0.0
2015-Mar-26 00:33N 40°40' W 074°01'0 0.0
2015-Mar-25 23:33N 40°40' W 074°01'0 0.0
2015-Mar-25 22:33N 40°40' W 074°01'0 0.0
2015-Mar-25 21:33N 40°40' W 074°01'2 2.5
2015-Mar-25 20:33N 40°40' W 074°04'2 0.9
2015-Mar-25 18:22N 40°39' W 074°07'4 5.5
2015-Mar-25 17:33N 40°40' W 074°01'0 0.0
2015-Mar-25 16:33N 40°40' W 074°01'0 0.0
2015-Mar-25 15:33N 40°40' W 074°01'0 0.1
2015-Mar-25 14:33N 40°40' W 074°01'0 0.0
2015-Mar-25 13:33N 40°40' W 074°01'0 0.0
2015-Mar-25 12:33N 40°40' W 074°01'0 0.0
2015-Mar-25 11:33N 40°40' W 074°01'1 1.1
2015-Mar-25 10:33N 40°39' W 074°02'5 5.0
2015-Mar-25 09:33N 40°38' W 074°09'3 0.4
2015-Mar-25 02:06N 40°41' W 074°08'0 0.0
2015-Mar-25 00:28N 40°41' W 074°08'0 0.0
2015-Mar-24 23:28N 40°41' W 074°08'0 0.4
2015-Mar-24 22:33N 40°41' W 074°08'0 0.1
2015-Mar-24 21:26N 40°41' W 074°08'1 0.3
2015-Mar-24 18:16N 40°42' W 074°09'0 0.1
2015-Mar-24 16:26N 40°42' W 074°09'3 3.5
2015-Mar-24 15:32N 40°39' W 074°09'7 7.2
2015-Mar-24 14:33N 40°42' W 074°00'4 4.3
2015-Mar-24 13:33N 40°45' W 073°57'0 0.0
2015-Mar-24 12:33N 40°45' W 073°57'1 1.4
2015-Mar-24 11:33N 40°44' W 073°58'5 4.8
2015-Mar-24 10:33N 40°40' W 074°02'3 2.9
2015-Mar-24 09:33N 40°39' W 074°06'3 3.3
2015-Mar-24 08:33N 40°41' W 074°08'0 0.0
2015-Mar-24 07:33N 40°41' W 074°08'0 0.0
2015-Mar-24 06:33N 40°41' W 074°08'0 0.0
2015-Mar-24 05:33N 40°41' W 074°08'0 0.0
2015-Mar-24 04:33N 40°41' W 074°08'0 0.0
2015-Mar-24 03:33N 40°41' W 074°08'0 0.0
2015-Mar-24 02:33N 40°41' W 074°08'0 0.0
2015-Mar-24 01:33N 40°41' W 074°08'0 0.0
2015-Mar-24 00:33N 40°41' W 074°08'0 0.0
2015-Mar-23 23:33N 40°41' W 074°08'0 0.0
2015-Mar-23 22:30N 40°41' W 074°08'0 0.0
2015-Mar-23 21:33N 40°41' W 074°08'0 0.0
2015-Mar-23 20:33N 40°41' W 074°08'1 0.4
2015-Mar-23 18:19N 40°42' W 074°09'0 0.1
2015-Mar-23 16:22N 40°42' W 074°09'1 0.9
2015-Mar-23 15:33N 40°41' W 074°08'0 0.0
2015-Mar-23 14:33N 40°41' W 074°08'0 0.0
2015-Mar-23 13:32N 40°41' W 074°08'0 0.0
2015-Mar-23 12:33N 40°41' W 074°08'0 0.0
2015-Mar-23 11:32N 40°41' W 074°08'0 0.1
2015-Mar-23 10:33N 40°41' W 074°08'0 0.1
2015-Mar-23 09:33N 40°41' W 074°08'0 0.0
2015-Mar-23 08:32N 40°41' W 074°08'0 0.1
2015-Mar-23 07:31N 40°41' W 074°08'0 0.0
2015-Mar-23 06:33N 40°41' W 074°08'0 0.0
2015-Mar-23 05:33N 40°41' W 074°08'0 0.0
2015-Mar-23 04:31N 40°41' W 074°08'0 0.0
2015-Mar-23 03:16N 40°41' W 074°08'0 0.0
2015-Mar-23 02:04N 40°41' W 074°08'0 0.0
2015-Mar-23 01:28N 40°41' W 074°08'0 0.0
2015-Mar-23 00:33N 40°41' W 074°08'0 0.0
2015-Mar-22 23:33N 40°41' W 074°08'0 0.0
2015-Mar-22 22:32N 40°41' W 074°08'0 0.0
2015-Mar-22 21:31N 40°41' W 074°08'0 0.0
2015-Mar-22 20:33N 40°41' W 074°08'0 0.0
2015-Mar-22 19:33N 40°41' W 074°08'0 0.0
2015-Mar-22 18:32N 40°41' W 074°08'1 0.7
2015-Mar-22 17:23N 40°42' W 074°09'1 0.3
2015-Mar-22 14:33N 40°41' W 074°08'0 0.0
2015-Mar-22 13:33N 40°41' W 074°08'0 0.0
2015-Mar-22 12:33N 40°41' W 074°08'0 0.0
2015-Mar-22 11:19N 40°41' W 074°08'0 0.0
2015-Mar-22 10:33N 40°41' W 074°08'0 0.0
2015-Mar-22 09:33N 40°41' W 074°08'0 0.0
2015-Mar-22 08:33N 40°41' W 074°08'0 0.0
2015-Mar-22 07:33N 40°41' W 074°08'0 0.0
2015-Mar-22 06:33N 40°41' W 074°08'0 0.0
2015-Mar-22 05:33N 40°41' W 074°08'0 0.0
2015-Mar-22 04:33N 40°41' W 074°08'0 0.0
2015-Mar-22 03:33N 40°41' W 074°08'0 0.0
2015-Mar-22 02:07N 40°41' W 074°08'0 0.0
2015-Mar-22 01:26N 40°41' W 074°08'0 0.0
2015-Mar-22 00:33N 40°41' W 074°08'0 0.0
2015-Mar-21 23:30N 40°41' W 074°08'0 0.0
2015-Mar-21 22:26N 40°41' W 074°08'0 0.0
2015-Mar-21 21:33N 40°41' W 074°08'0 0.0
2015-Mar-21 20:33N 40°41' W 074°08'0 0.0
2015-Mar-21 19:33N 40°41' W 074°08'0 0.0
2015-Mar-21 18:33N 40°41' W 074°08'0 0.0
2015-Mar-21 13:33N 40°41' W 074°08'0 0.4
2015-Mar-21 12:31N 40°41' W 074°08'0 0.4
2015-Mar-21 11:33N 40°41' W 074°08'0 0.0
2015-Mar-21 10:33N 40°41' W 074°08'0 0.0
2015-Mar-21 09:32N 40°41' W 074°08'0 0.0
2015-Mar-21 08:31N 40°41' W 074°08'0 0.0
2015-Mar-21 06:08N 40°41' W 074°08'0 0.0
2015-Mar-21 05:33N 40°41' W 074°08'0 0.4
2015-Mar-21 04:33N 40°41' W 074°08'3 2.5
2015-Mar-21 03:32N 40°39' W 074°09'4 4.3
2015-Mar-21 02:33N 40°41' W 074°04'0 0.2
2015-Mar-21 01:33N 40°41' W 074°04'2 2.2
2015-Mar-21 00:33N 40°39' W 074°05'3 3.0
2015-Mar-20 23:29N 40°41' W 074°08'0 0.1
2015-Mar-20 22:29N 40°41' W 074°08'0 0.2
2015-Mar-20 21:13N 40°41' W 074°08'0 0.0
2015-Mar-20 20:31N 40°41' W 074°08'0 0.2
2015-Mar-20 19:31N 40°41' W 074°08'2 2.6
2015-Mar-20 18:33N 40°39' W 074°07'3 2.7
2015-Mar-20 17:33N 40°41' W 074°04'0 0.3
2015-Mar-20 16:33N 40°41' W 074°05'3 2.5
2015-Mar-20 15:33N 40°39' W 074°06'3 3.1
2015-Mar-20 14:33N 40°42' W 074°08'0 0.2
2015-Mar-20 13:32N 40°41' W 074°08'1 0.6
2015-Mar-20 12:33N 40°41' W 074°09'1 0.8
2015-Mar-20 11:33N 40°42' W 074°08'0 0.4
2015-Mar-20 10:33N 40°41' W 074°08'0 0.0
2015-Mar-20 09:33N 40°41' W 074°08'0 0.0
2015-Mar-20 08:06N 40°41' W 074°08'0 0.0
2015-Mar-20 07:31N 40°41' W 074°08'0 0.0
2015-Mar-20 06:24N 40°41' W 074°08'0 0.0
2015-Mar-20 05:30N 40°41' W 074°08'0 0.0
2015-Mar-20 04:32N 40°41' W 074°08'0 0.0
2015-Mar-20 03:29N 40°41' W 074°08'0 0.0
2015-Mar-20 02:24N 40°41' W 074°08'0 0.0
2015-Mar-20 01:21N 40°41' W 074°08'0 0.0
2015-Mar-20 00:19N 40°41' W 074°08'1 1.1
2015-Mar-19 23:28N 40°42' W 074°09'0 0.0
2015-Mar-19 22:27N 40°42' W 074°09'1 1.1
2015-Mar-19 21:32N 40°41' W 074°08'0 0.0
2015-Mar-19 20:31N 40°41' W 074°08'1 0.8
2015-Mar-19 19:17N 40°42' W 074°09'0 0.0
2015-Mar-19 18:30N 40°42' W 074°09'0 0.0
2015-Mar-19 17:25N 40°42' W 074°09'3 4.0
2015-Mar-19 16:33N 40°39' W 074°08'6 6.3
2015-Mar-19 15:33N 40°42' W 074°02'4 4.2
2015-Mar-19 14:33N 40°46' W 073°60'0 0.0
2015-Mar-19 13:33N 40°46' W 073°60'4 3.6
2015-Mar-19 12:33N 40°43' W 074°01'6 6.1
2015-Mar-19 11:31N 40°40' W 074°08'13 2.1
2015-Mar-19 05:21N 40°30' W 074°20'0 0.0
2015-Mar-19 02:27N 40°30' W 074°20'0 0.0
2015-Mar-19 01:08N 40°30' W 074°20'0 0.0
2015-Mar-18 22:31N 40°30' W 074°20'0 0.0
2015-Mar-18 17:31N 40°30' W 074°20'0 0.0
2015-Mar-18 15:10N 40°30' W 074°20'0 0.0
2015-Mar-18 13:04N 40°30' W 074°20'0 0.0
2015-Mar-18 10:31N 40°30' W 074°20'0 0.0
2015-Mar-18 09:26N 40°30' W 074°20'0 0.0
2015-Mar-18 08:31N 40°30' W 074°20'0 0.0
2015-Mar-18 01:07N 40°30' W 074°20'0 0.0
2015-Mar-17 23:23N 40°30' W 074°20'0 0.0
2015-Mar-17 18:16N 40°30' W 074°20'0 0.0
2015-Mar-17 17:30N 40°30' W 074°20'0 0.0
2015-Mar-17 14:30N 40°30' W 074°20'0 0.0
2015-Mar-17 13:24N 40°30' W 074°20'0 0.0
2015-Mar-17 09:23N 40°30' W 074°20'0 0.0
2015-Mar-17 08:21N 40°30' W 074°20'0 0.0
2015-Mar-17 06:07N 40°30' W 074°20'0 0.0
2015-Mar-17 05:06N 40°30' W 074°20'0 0.0
2015-Mar-17 03:29N 40°30' W 074°20'0 0.0
2015-Mar-17 02:13N 40°30' W 074°20'0 0.0
2015-Mar-17 01:33N 40°30' W 074°20'0 0.0
2015-Mar-17 00:21N 40°30' W 074°20'0 0.0
2015-Mar-16 23:10N 40°30' W 074°20'0 0.0
2015-Mar-16 22:13N 40°30' W 074°20'0 0.0
2015-Mar-16 20:22N 40°30' W 074°20'0 0.0
2015-Mar-16 19:33N 40°30' W 074°20'0 0.0
2015-Mar-16 18:21N 40°30' W 074°20'0 0.0
2015-Mar-16 17:26N 40°30' W 074°20'0 0.3
2015-Mar-16 16:07N 40°30' W 074°19'3 1.9
2015-Mar-16 14:17N 40°31' W 074°15'  
Track history (hours):
 
Tides and Currents Weather Stations Pressure Air Temp Water Temp Dewpoint Dewpoint Depression Visibility Wind Speed Wind Dir Waves Ship Positions

Mary Alice

Owner: Donjon Marine Co., Inc., HILLSIDE, NJ. More information available from US FCC via Universal Licensing System and Coast Guard Vessel Documentation Center.

Last reported at 2015-Mar-26 14:05 UTC. Time now 2015-Mar-29 12:32 UTC.
Position N 40°56' W 073°55'.

Length 21 m; draft 4.8 m.

Type: Towing. MMSI: 366744020.

Date/timePositionNaut miles runAvg speedWind from/ knotsBaromVisibWave heightAir tempDewpointWater temp
2015-Mar-26 14:05N 40°56' W 073°55'0 0.0
2015-Mar-26 13:30N 40°56' W 073°55'8 1.5
2015-Mar-26 08:29N 40°48' W 073°59'7 7.2
2015-Mar-26 07:33N 40°42' W 074°01'2 2.5
2015-Mar-26 06:33N 40°40' W 074°01'0 0.0
2015-Mar-26 05:33N 40°40' W 074°01'0 0.0
2015-Mar-26 04:33N 40°40' W 074°01'0 0.0
2015-Mar-26 03:33N 40°40' W 074°01'0 0.0
2015-Mar-26 02:33N 40°40' W 074°01'0 0.0
2015-Mar-26 01:33N 40°40' W 074°01'0 0.0
2015-Mar-26 00:33N 40°40' W 074°01'0 0.0
2015-Mar-25 23:33N 40°40' W 074°01'0 0.0
2015-Mar-25 22:33N 40°40' W 074°01'0 0.0
2015-Mar-25 21:33N 40°40' W 074°01'2 2.5
2015-Mar-25 20:33N 40°40' W 074°04'2 0.9
2015-Mar-25 18:22N 40°39' W 074°07'4 5.5
2015-Mar-25 17:33N 40°40' W 074°01'0 0.0
2015-Mar-25 16:33N 40°40' W 074°01'0 0.0
2015-Mar-25 15:33N 40°40' W 074°01'0 0.1
2015-Mar-25 14:33N 40°40' W 074°01'0 0.0
2015-Mar-25 13:33N 40°40' W 074°01'0 0.0
2015-Mar-25 12:33N 40°40' W 074°01'0 0.0
2015-Mar-25 11:33N 40°40' W 074°01'1 1.1
2015-Mar-25 10:33N 40°39' W 074°02'5 5.0
2015-Mar-25 09:33N 40°38' W 074°09'3 0.4
2015-Mar-25 02:06N 40°41' W 074°08'0 0.0
2015-Mar-25 00:28N 40°41' W 074°08'0 0.0
2015-Mar-24 23:28N 40°41' W 074°08'0 0.4
2015-Mar-24 22:33N 40°41' W 074°08'0 0.1
2015-Mar-24 21:26N 40°41' W 074°08'1 0.3
2015-Mar-24 18:16N 40°42' W 074°09'0 0.1
2015-Mar-24 16:26N 40°42' W 074°09'3 3.5
2015-Mar-24 15:32N 40°39' W 074°09'7 7.2
2015-Mar-24 14:33N 40°42' W 074°00'4 4.3
2015-Mar-24 13:33N 40°45' W 073°57'0 0.0
2015-Mar-24 12:33N 40°45' W 073°57'1 1.4
2015-Mar-24 11:33N 40°44' W 073°58'5 4.8
2015-Mar-24 10:33N 40°40' W 074°02'3 2.9
2015-Mar-24 09:33N 40°39' W 074°06'3 3.3
2015-Mar-24 08:33N 40°41' W 074°08'0 0.0
2015-Mar-24 07:33N 40°41' W 074°08'0 0.0
2015-Mar-24 06:33N 40°41' W 074°08'0 0.0
2015-Mar-24 05:33N 40°41' W 074°08'0 0.0
2015-Mar-24 04:33N 40°41' W 074°08'0 0.0
2015-Mar-24 03:33N 40°41' W 074°08'0 0.0
2015-Mar-24 02:33N 40°41' W 074°08'0 0.0
2015-Mar-24 01:33N 40°41' W 074°08'0 0.0
2015-Mar-24 00:33N 40°41' W 074°08'0 0.0
2015-Mar-23 23:33N 40°41' W 074°08'0 0.0
2015-Mar-23 22:30N 40°41' W 074°08'0 0.0
2015-Mar-23 21:33N 40°41' W 074°08'0 0.0
2015-Mar-23 20:33N 40°41' W 074°08'1 0.4
2015-Mar-23 18:19N 40°42' W 074°09'0 0.1
2015-Mar-23 16:22N 40°42' W 074°09'1 0.9
2015-Mar-23 15:33N 40°41' W 074°08'0 0.0
2015-Mar-23 14:33N 40°41' W 074°08'0 0.0
2015-Mar-23 13:32N 40°41' W 074°08'0 0.0
2015-Mar-23 12:33N 40°41' W 074°08'0 0.0
2015-Mar-23 11:32N 40°41' W 074°08'0 0.1
2015-Mar-23 10:33N 40°41' W 074°08'0 0.1
2015-Mar-23 09:33N 40°41' W 074°08'0 0.0
2015-Mar-23 08:32N 40°41' W 074°08'0 0.1
2015-Mar-23 07:31N 40°41' W 074°08'0 0.0
2015-Mar-23 06:33N 40°41' W 074°08'0 0.0
2015-Mar-23 05:33N 40°41' W 074°08'0 0.0
2015-Mar-23 04:31N 40°41' W 074°08'0 0.0
2015-Mar-23 03:16N 40°41' W 074°08'0 0.0
2015-Mar-23 02:04N 40°41' W 074°08'0 0.0
2015-Mar-23 01:28N 40°41' W 074°08'0 0.0
2015-Mar-23 00:33N 40°41' W 074°08'0 0.0
2015-Mar-22 23:33N 40°41' W 074°08'0 0.0
2015-Mar-22 22:32N 40°41' W 074°08'0 0.0
2015-Mar-22 21:31N 40°41' W 074°08'0 0.0
2015-Mar-22 20:33N 40°41' W 074°08'0 0.0
2015-Mar-22 19:33N 40°41' W 074°08'0 0.0
2015-Mar-22 18:32N 40°41' W 074°08'1 0.7
2015-Mar-22 17:23N 40°42' W 074°09'1 0.3
2015-Mar-22 14:33N 40°41' W 074°08'0 0.0
2015-Mar-22 13:33N 40°41' W 074°08'0 0.0
2015-Mar-22 12:33N 40°41' W 074°08'0 0.0
2015-Mar-22 11:19N 40°41' W 074°08'0 0.0
2015-Mar-22 10:33N 40°41' W 074°08'0 0.0
2015-Mar-22 09:33N 40°41' W 074°08'0 0.0
2015-Mar-22 08:33N 40°41' W 074°08'0 0.0
2015-Mar-22 07:33N 40°41' W 074°08'0 0.0
2015-Mar-22 06:33N 40°41' W 074°08'0 0.0
2015-Mar-22 05:33N 40°41' W 074°08'0 0.0
2015-Mar-22 04:33N 40°41' W 074°08'0 0.0
2015-Mar-22 03:33N 40°41' W 074°08'0 0.0
2015-Mar-22 02:07N 40°41' W 074°08'0 0.0
2015-Mar-22 01:26N 40°41' W 074°08'0 0.0
2015-Mar-22 00:33N 40°41' W 074°08'0 0.0
2015-Mar-21 23:30N 40°41' W 074°08'0 0.0
2015-Mar-21 22:26N 40°41' W 074°08'0 0.0
2015-Mar-21 21:33N 40°41' W 074°08'0 0.0
2015-Mar-21 20:33N 40°41' W 074°08'0 0.0
2015-Mar-21 19:33N 40°41' W 074°08'0 0.0
2015-Mar-21 18:33N 40°41' W 074°08'0 0.0
2015-Mar-21 13:33N 40°41' W 074°08'0 0.4
2015-Mar-21 12:31N 40°41' W 074°08'0 0.4
2015-Mar-21 11:33N 40°41' W 074°08'0 0.0
2015-Mar-21 10:33N 40°41' W 074°08'0 0.0
2015-Mar-21 09:32N 40°41' W 074°08'0 0.0
2015-Mar-21 08:31N 40°41' W 074°08'0 0.0
2015-Mar-21 06:08N 40°41' W 074°08'0 0.0
2015-Mar-21 05:33N 40°41' W 074°08'0 0.4
2015-Mar-21 04:33N 40°41' W 074°08'3 2.5
2015-Mar-21 03:32N 40°39' W 074°09'4 4.3
2015-Mar-21 02:33N 40°41' W 074°04'0 0.2
2015-Mar-21 01:33N 40°41' W 074°04'2 2.2
2015-Mar-21 00:33N 40°39' W 074°05'3 3.0
2015-Mar-20 23:29N 40°41' W 074°08'0 0.1
2015-Mar-20 22:29N 40°41' W 074°08'0 0.2
2015-Mar-20 21:13N 40°41' W 074°08'0 0.0
2015-Mar-20 20:31N 40°41' W 074°08'0 0.2
2015-Mar-20 19:31N 40°41' W 074°08'2 2.6
2015-Mar-20 18:33N 40°39' W 074°07'3 2.7
2015-Mar-20 17:33N 40°41' W 074°04'0 0.3
2015-Mar-20 16:33N 40°41' W 074°05'3 2.5
2015-Mar-20 15:33N 40°39' W 074°06'3 3.1
2015-Mar-20 14:33N 40°42' W 074°08'0 0.2
2015-Mar-20 13:32N 40°41' W 074°08'1 0.6
2015-Mar-20 12:33N 40°41' W 074°09'1 0.8
2015-Mar-20 11:33N 40°42' W 074°08'0 0.4
2015-Mar-20 10:33N 40°41' W 074°08'0 0.0
2015-Mar-20 09:33N 40°41' W 074°08'0 0.0
2015-Mar-20 08:06N 40°41' W 074°08'0 0.0
2015-Mar-20 07:31N 40°41' W 074°08'0 0.0
2015-Mar-20 06:24N 40°41' W 074°08'0 0.0
2015-Mar-20 05:30N 40°41' W 074°08'0 0.0
2015-Mar-20 04:32N 40°41' W 074°08'0 0.0
2015-Mar-20 03:29N 40°41' W 074°08'0 0.0
2015-Mar-20 02:24N 40°41' W 074°08'0 0.0
2015-Mar-20 01:21N 40°41' W 074°08'0 0.0
2015-Mar-20 00:19N 40°41' W 074°08'1 1.1
2015-Mar-19 23:28N 40°42' W 074°09'0 0.0
2015-Mar-19 22:27N 40°42' W 074°09'1 1.1
2015-Mar-19 21:32N 40°41' W 074°08'0 0.0
2015-Mar-19 20:31N 40°41' W 074°08'1 0.8
2015-Mar-19 19:17N 40°42' W 074°09'0 0.0
2015-Mar-19 18:30N 40°42' W 074°09'0 0.0
2015-Mar-19 17:25N 40°42' W 074°09'3 4.0
2015-Mar-19 16:33N 40°39' W 074°08'6 6.3
2015-Mar-19 15:33N 40°42' W 074°02'4 4.2
2015-Mar-19 14:33N 40°46' W 073°60'0 0.0
2015-Mar-19 13:33N 40°46' W 073°60'4 3.6
2015-Mar-19 12:33N 40°43' W 074°01'6 6.1
2015-Mar-19 11:31N 40°40' W 074°08'13 2.1
2015-Mar-19 05:21N 40°30' W 074°20'0 0.0
2015-Mar-19 02:27N 40°30' W 074°20'0 0.0
2015-Mar-19 01:08N 40°30' W 074°20'0 0.0
2015-Mar-18 22:31N 40°30' W 074°20'0 0.0
2015-Mar-18 17:31N 40°30' W 074°20'0 0.0
2015-Mar-18 15:10N 40°30' W 074°20'0 0.0
2015-Mar-18 13:04N 40°30' W 074°20'0 0.0
2015-Mar-18 10:31N 40°30' W 074°20'0 0.0
2015-Mar-18 09:26N 40°30' W 074°20'0 0.0
2015-Mar-18 08:31N 40°30' W 074°20'0 0.0
2015-Mar-18 01:07N 40°30' W 074°20'0 0.0
2015-Mar-17 23:23N 40°30' W 074°20'0 0.0
2015-Mar-17 18:16N 40°30' W 074°20'0 0.0
2015-Mar-17 17:30N 40°30' W 074°20'0 0.0
2015-Mar-17 14:30N 40°30' W 074°20'0 0.0
2015-Mar-17 13:24N 40°30' W 074°20'0 0.0
2015-Mar-17 09:23N 40°30' W 074°20'0 0.0
2015-Mar-17 08:21N 40°30' W 074°20'0 0.0
2015-Mar-17 06:07N 40°30' W 074°20'0 0.0
2015-Mar-17 05:06N 40°30' W 074°20'0 0.0
2015-Mar-17 03:29N 40°30' W 074°20'0 0.0
2015-Mar-17 02:13N 40°30' W 074°20'0 0.0
2015-Mar-17 01:33N 40°30' W 074°20'0 0.0
2015-Mar-17 00:21N 40°30' W 074°20'0 0.0
2015-Mar-16 23:10N 40°30' W 074°20'0 0.0
2015-Mar-16 22:13N 40°30' W 074°20'0 0.0
2015-Mar-16 20:22N 40°30' W 074°20'0 0.0
2015-Mar-16 19:33N 40°30' W 074°20'0 0.0
2015-Mar-16 18:21N 40°30' W 074°20'0 0.0
2015-Mar-16 17:26N 40°30' W 074°20'0 0.3
2015-Mar-16 16:07N 40°30' W 074°19'3 1.9
2015-Mar-16 14:17N 40°31' W 074°15'  

Dump ship's entire track history